Time;durP1;ratioP1;P1;durP2;ratioP2;P2;SDS_P1;SDS_P2;PMS_P1;PMS_P2;Temp;Humidity;BMP_temperature;BMP_pressure;BME280_temperature;BME280_humidity;BME280_pressure;Samples;Min_cycle;Max_cycle;Signal;HPM_P1;HPM_P2
2022/05/11 00:01:14;;;;;;;;;0.00;0.00;17.40;99.90;;;;;;4979200;28;9787;-66
2022/05/11 00:03:45;;;;;;;;;0.00;0.00;17.40;99.90;;;;;;4981114;28;9755;-67
2022/05/11 00:06:17;;;;;;;;;0.00;0.00;17.50;99.90;;;;;;4976988;28;9770;-68
2022/05/11 00:08:48;;;;;;;;;0.00;0.00;17.60;99.90;;;;;;4975870;28;9695;-68
2022/05/11 00:11:18;;;;;;;;;0.00;0.00;17.60;99.90;;;;;;4969511;28;9855;-67
2022/05/11 00:13:50;;;;;;;;;0.00;0.00;17.60;99.90;;;;;;4978117;28;9646;-68
2022/05/11 00:16:20;;;;;;;;;0.00;0.00;17.70;99.90;;;;;;4977544;28;9784;-67
2022/05/11 00:18:51;;;;;;;;;0.00;0.00;17.70;99.90;;;;;;4977244;28;10398;-68
2022/05/11 00:21:23;;;;;;;;;0.00;0.00;17.60;99.90;;;;;;4976908;28;9731;-68
2022/05/11 00:23:54;;;;;;;;;0.00;0.00;17.50;99.90;;;;;;4976506;28;9788;-66
2022/05/11 00:26:24;;;;;;;;;0.00;0.00;17.60;99.90;;;;;;4975500;28;9660;-68
2022/05/11 00:28:56;;;;;;;;;0.00;0.00;17.60;99.90;;;;;;4970551;28;10324;-66
2022/05/11 00:31:27;;;;;;;;;0.00;0.00;17.50;99.90;;;;;;4974702;28;9996;-67
2022/05/11 00:33:58;;;;;;;;;0.00;0.00;17.40;99.90;;;;;;4979120;28;10182;-67
2022/05/11 00:36:29;;;;;;;;;1.75;1.75;17.40;99.90;;;;;;4972488;28;10185;-68
2022/05/11 00:39:00;;;;;;;;;2.00;2.00;17.30;99.90;;;;;;4974388;28;10319;-69
2022/05/11 00:41:31;;;;;;;;;1.50;1.50;17.20;99.90;;;;;;4972429;28;10404;-68
2022/05/11 00:44:05;;;;;;;;;0.00;0.00;17.20;99.90;;;;;;4983790;28;11817;-67
2022/05/11 00:46:46;;;;;;;;;0.75;0.75;17.10;99.90;;;;;;4987958;28;10420;-68
2022/05/11 00:49:38;;;;;;;;;0.00;0.00;17.10;99.90;;;;;;4973266;28;10345;-67
2022/05/11 00:52:15;;;;;;;;;0.00;0.00;17.00;99.90;;;;;;4975524;28;10012;-68
2022/05/11 00:55:05;;;;;;;;;0.00;0.00;17.00;99.90;;;;;;4988797;28;10090;-67
2022/05/11 00:57:50;;;;;;;;;0.00;0.00;17.00;99.90;;;;;;4977948;28;10046;-69
2022/05/11 01:00:23;;;;;;;;;0.00;0.00;17.00;99.90;;;;;;4987976;28;9847;-64
2022/05/11 01:03:05;;;;;;;;;0.00;0.00;16.90;99.90;;;;;;4987192;28;10164;-69
2022/05/11 01:05:35;;;;;;;;;1.00;0.00;16.80;99.90;;;;;;4978295;28;10135;-69
2022/05/11 01:08:07;;;;;;;;;0.00;0.00;16.70;99.90;;;;;;4991951;28;11110;-67
2022/05/11 01:10:38;;;;;;;;;1.25;1.25;16.60;99.90;;;;;;4998451;28;11353;-68
2022/05/11 01:13:12;;;;;;;;;1.75;1.75;16.60;99.90;;;;;;4976293;28;10642;-68
2022/05/11 01:15:48;;;;;;;;;2.50;2.50;16.60;99.90;;;;;;4984217;28;10769;-69
2022/05/11 01:18:23;;;;;;;;;4.25;4.25;16.70;99.90;;;;;;4998900;28;11402;-68
2022/05/11 01:20:54;;;;;;;;;4.50;4.50;16.70;99.90;;;;;;4994201;28;10862;-68
2022/05/11 01:23:32;;;;;;;;;4.50;4.50;16.60;99.90;;;;;;4994592;28;10566;-67
2022/05/11 01:26:04;;;;;;;;;4.50;4.50;16.50;99.90;;;;;;4975021;28;10682;-69
2022/05/11 01:28:44;;;;;;;;;4.25;4.25;16.50;99.90;;;;;;4992724;28;10831;-69
2022/05/11 01:31:16;;;;;;;;;2.75;2.75;16.50;99.90;;;;;;4992127;28;11050;-67
2022/05/11 01:33:50;;;;;;;;;0.00;0.00;16.40;99.90;;;;;;4974740;28;10968;-69
2022/05/11 01:36:36;;;;;;;;;0.00;0.00;16.30;99.90;;;;;;4976091;28;10572;-68
2022/05/11 01:39:10;;;;;;;;;0.00;0.00;16.20;99.90;;;;;;4996556;28;11158;-69
2022/05/11 01:41:51;;;;;;;;;0.00;0.00;16.20;99.90;;;;;;4989875;28;10288;-65
2022/05/11 01:44:24;;;;;;;;;0.00;0.00;16.20;99.90;;;;;;4975814;28;11311;-67
2022/05/11 01:46:59;;;;;;;;;0.00;0.00;16.20;99.90;;;;;;4963137;28;10473;-67
2022/05/11 01:49:31;;;;;;;;;0.00;0.00;16.20;99.90;;;;;;4992243;28;10379;-66
2022/05/11 01:52:03;;;;;;;;;0.00;0.00;16.10;99.90;;;;;;4977165;28;10325;-66
2022/05/11 01:54:34;;;;;;;;;0.00;0.00;16.10;99.90;;;;;;4996050;28;11175;-69
2022/05/11 01:57:05;;;;;;;;;0.00;0.00;16.10;99.90;;;;;;4992779;28;10204;-68
2022/05/11 01:59:35;;;;;;;;;0.00;0.00;16.10;99.90;;;;;;4976119;28;10718;-69
2022/05/11 02:02:06;;;;;;;;;0.00;0.00;16.00;99.90;;;;;;4994203;28;10889;-69
2022/05/11 02:10:24;;;;;;;;;0.00;0.00;15.90;99.90;;;;;;4995830;28;10529;-67
2022/05/11 02:12:57;;;;;;;;;0.00;0.00;15.70;99.90;;;;;;4979769;28;10475;-68
2022/05/11 02:15:28;;;;;;;;;0.00;0.00;15.60;99.90;;;;;;4993288;28;10651;-67
2022/05/11 02:17:59;;;;;;;;;0.00;0.00;15.70;99.90;;;;;;4994676;28;10436;-68
2022/05/11 02:20:31;;;;;;;;;0.00;0.00;15.60;99.90;;;;;;4999731;28;11628;-68
2022/05/11 02:23:02;;;;;;;;;0.00;0.00;15.60;99.90;;;;;;4996709;28;10654;-68
2022/05/11 02:25:34;;;;;;;;;0.00;0.00;15.50;99.90;;;;;;4981331;28;10646;-69
2022/05/11 02:28:04;;;;;;;;;0.00;0.00;15.40;99.90;;;;;;4978168;28;10737;-68
2022/05/11 02:30:35;;;;;;;;;0.00;0.00;15.30;99.90;;;;;;4988167;28;10700;-69
2022/05/11 02:33:07;;;;;;;;;0.00;0.00;15.30;99.90;;;;;;5000769;28;10776;-68
2022/05/11 02:35:39;;;;;;;;;0.00;0.00;15.20;99.90;;;;;;4997571;28;10678;-69
2022/05/11 02:38:19;;;;;;;;;0.00;0.00;15.30;99.90;;;;;;5002033;28;10907;-69
2022/05/11 02:40:51;;;;;;;;;0.00;0.00;15.30;99.90;;;;;;4980098;28;10760;-68
2022/05/11 02:43:22;;;;;;;;;0.00;0.00;15.30;99.90;;;;;;4999207;28;10757;-69
2022/05/11 02:45:53;;;;;;;;;0.00;0.00;15.20;99.90;;;;;;4994328;28;10713;-68
2022/05/11 02:48:26;;;;;;;;;0.00;0.00;15.20;99.90;;;;;;4993772;28;10726;-68
2022/05/11 02:50:58;;;;;;;;;0.75;0.00;15.10;99.90;;;;;;4994061;28;10694;-71
2022/05/11 02:53:31;;;;;;;;;0.00;0.00;15.10;99.90;;;;;;4999661;28;10803;-70
2022/05/11 02:56:02;;;;;;;;;0.00;0.00;15.10;99.90;;;;;;4992540;28;10887;-71
2022/05/11 02:58:33;;;;;;;;;0.00;0.00;15.00;99.90;;;;;;4972041;28;10972;-70
2022/05/11 03:01:04;;;;;;;;;0.00;0.00;15.10;99.90;;;;;;4983915;28;10877;-70
2022/05/11 03:03:35;;;;;;;;;0.00;0.00;15.10;99.90;;;;;;5001292;28;11108;-68
2022/05/11 03:06:07;;;;;;;;;0.00;0.00;15.10;99.90;;;;;;4997276;28;10829;-70
2022/05/11 03:08:38;;;;;;;;;0.00;0.00;15.10;99.90;;;;;;4999542;28;10885;-68
2022/05/11 03:11:09;;;;;;;;;0.00;0.00;15.00;99.90;;;;;;5000373;28;10884;-69
2022/05/11 03:13:41;;;;;;;;;0.00;0.00;14.90;99.90;;;;;;4998143;28;10930;-69
2022/05/11 03:16:12;;;;;;;;;0.00;0.00;14.80;99.90;;;;;;4996911;28;10798;-69
2022/05/11 03:18:47;;;;;;;;;0.00;0.00;14.80;99.90;;;;;;4996212;28;10924;-69
2022/05/11 03:21:21;;;;;;;;;0.00;0.00;14.70;99.90;;;;;;4982951;28;10955;-68
2022/05/11 03:23:54;;;;;;;;;0.00;0.00;14.70;99.90;;;;;;5001632;28;10809;-69
2022/05/11 03:26:26;;;;;;;;;0.00;0.00;14.80;99.90;;;;;;4979359;28;11632;-68
2022/05/11 03:28:57;;;;;;;;;0.00;0.00;14.70;99.90;;;;;;5002776;28;11125;-69
2022/05/11 03:31:29;;;;;;;;;0.00;0.00;14.70;99.90;;;;;;4990415;28;11896;-69
2022/05/11 03:36:49;;;;;;;;;0.00;0.00;14.50;99.90;;;;;;4995870;28;10879;-58
2022/05/11 03:39:23;;;;;;;;;0.00;0.00;14.50;99.90;;;;;;4986045;28;11046;-70
2022/05/11 03:41:56;;;;;;;;;0.00;0.00;14.60;99.90;;;;;;4973971;28;11065;-69
2022/05/11 03:44:28;;;;;;;;;0.00;0.00;14.60;99.90;;;;;;4998903;28;11076;-70
2022/05/11 03:47:00;;;;;;;;;0.00;0.00;14.60;99.90;;;;;;4998880;28;11056;-71
2022/05/11 03:49:30;;;;;;;;;0.00;0.00;14.60;99.90;;;;;;4996542;28;11071;-69
2022/05/11 03:52:02;;;;;;;;;0.00;0.00;14.60;99.90;;;;;;4998302;28;11108;-69
2022/05/11 03:54:38;;;;;;;;;0.00;0.00;14.60;99.90;;;;;;4999452;28;11130;-69
2022/05/11 03:57:09;;;;;;;;;0.25;0.25;14.40;99.90;;;;;;4982130;28;10953;-68
2022/05/11 03:59:40;;;;;;;;;0.00;0.00;14.50;99.90;;;;;;4982963;28;11067;-68
2022/05/11 04:02:11;;;;;;;;;0.00;0.00;14.50;99.90;;;;;;4984952;28;11165;-69
2022/05/11 04:04:42;;;;;;;;;0.00;0.00;14.50;99.90;;;;;;4982346;28;11432;-68
2022/05/11 04:07:13;;;;;;;;;0.00;0.00;14.50;99.90;;;;;;4996552;28;11237;-68
2022/05/11 04:09:45;;;;;;;;;0.00;0.00;14.40;99.90;;;;;;4982305;28;11130;-68
2022/05/11 04:12:15;;;;;;;;;0.00;0.00;14.40;99.90;;;;;;4981907;28;11420;-69
2022/05/11 04:14:47;;;;;;;;;0.00;0.00;14.40;99.90;;;;;;4983216;28;11444;-69
2022/05/11 04:17:18;;;;;;;;;0.00;0.00;14.30;99.90;;;;;;4982025;28;11366;-69
2022/05/11 04:19:50;;;;;;;;;1.00;0.00;14.30;99.90;;;;;;4981295;28;11243;-69
2022/05/11 04:22:21;;;;;;;;;0.00;0.00;14.30;99.90;;;;;;5001141;28;11140;-70
2022/05/11 04:24:52;;;;;;;;;0.00;0.00;14.30;99.90;;;;;;4992634;28;11364;-69
2022/05/11 04:27:23;;;;;;;;;0.00;0.00;14.30;99.90;;;;;;4979944;28;11479;-69
2022/05/11 04:29:54;;;;;;;;;0.00;0.00;14.30;99.90;;;;;;4995158;28;11174;-70
2022/05/11 04:32:25;;;;;;;;;0.00;0.00;14.30;99.90;;;;;;4989886;28;11028;-69
2022/05/11 04:34:55;;;;;;;;;0.00;0.00;14.30;99.90;;;;;;4997294;28;11102;-70
2022/05/11 04:37:26;;;;;;;;;0.25;0.25;14.30;99.90;;;;;;4997424;28;11096;-70
2022/05/11 04:39:57;;;;;;;;;0.00;0.00;14.20;99.90;;;;;;4988715;28;11165;-70
2022/05/11 04:42:29;;;;;;;;;0.00;0.00;14.20;99.90;;;;;;4991631;28;12181;-69
2022/05/11 04:45:00;;;;;;;;;0.00;0.00;14.20;99.90;;;;;;4977734;28;12593;-69
2022/05/11 04:47:34;;;;;;;;;0.00;0.00;14.20;99.90;;;;;;4979856;28;11424;-69
2022/05/11 04:50:06;;;;;;;;;0.00;0.00;14.20;99.90;;;;;;4996343;28;11207;-70
2022/05/11 04:52:37;;;;;;;;;1.00;0.00;14.20;99.90;;;;;;4981940;28;11276;-70
2022/05/11 04:55:09;;;;;;;;;0.00;0.00;14.20;99.90;;;;;;4984663;28;11262;-70
2022/05/11 04:57:40;;;;;;;;;0.00;0.00;14.20;99.90;;;;;;4978837;28;12379;-69
2022/05/11 05:00:15;;;;;;;;;0.00;0.00;14.20;99.90;;;;;;4998571;28;11947;-69
2022/05/11 05:02:46;;;;;;;;;0.00;0.00;14.20;99.90;;;;;;4996720;28;11426;-70
2022/05/11 05:05:19;;;;;;;;;0.00;0.00;14.20;99.90;;;;;;4999307;28;11555;-69
2022/05/11 05:07:50;;;;;;;;;0.00;0.00;14.20;99.90;;;;;;4994002;28;11080;-71
2022/05/11 05:10:21;;;;;;;;;0.00;0.00;14.20;99.90;;;;;;4998935;28;11472;-70
2022/05/11 05:12:52;;;;;;;;;0.00;0.00;14.10;99.90;;;;;;4977821;28;11263;-70
2022/05/11 05:15:24;;;;;;;;;0.00;0.00;14.20;99.90;;;;;;4999456;28;11481;-70
2022/05/11 05:17:56;;;;;;;;;0.00;0.00;14.10;99.90;;;;;;4982481;28;11260;-70
2022/05/11 05:20:26;;;;;;;;;0.00;0.00;14.10;99.90;;;;;;4974804;28;11428;-69
2022/05/11 05:22:57;;;;;;;;;0.00;0.00;14.10;99.90;;;;;;4980241;28;11586;-69
2022/05/11 05:25:29;;;;;;;;;1.00;0.00;14.10;99.90;;;;;;4994309;28;11423;-69
2022/05/11 05:31:04;;;;;;;;;0.00;0.00;14.10;99.90;;;;;;4980289;28;11435;-69
2022/05/11 05:31:05;;;;;;;;;0.00;0.00;14.10;99.90;;;;;;4999533;28;11403;-68
2022/05/11 05:33:39;;;;;;;;;0.00;0.00;14.10;99.90;;;;;;4978043;28;11469;-69
2022/05/11 05:36:11;;;;;;;;;0.00;0.00;14.10;99.90;;;;;;4982435;28;12155;-70
2022/05/11 05:38:44;;;;;;;;;0.00;0.00;14.00;99.90;;;;;;4979589;28;12410;-69
2022/05/11 05:41:15;;;;;;;;;0.00;0.00;14.10;99.90;;;;;;4992640;28;10963;-70
2022/05/11 05:43:46;;;;;;;;;0.00;0.00;14.00;99.90;;;;;;4992262;28;11413;-70
2022/05/11 05:46:17;;;;;;;;;0.00;0.00;14.00;99.90;;;;;;4999825;28;11466;-70
2022/05/11 05:48:48;;;;;;;;;0.00;0.00;14.00;99.90;;;;;;4978210;28;11111;-69
2022/05/11 05:51:22;;;;;;;;;0.00;0.00;14.00;99.90;;;;;;4965208;28;11369;-69
2022/05/11 05:53:53;;;;;;;;;0.00;0.00;14.00;99.90;;;;;;4977180;28;11465;-69
2022/05/11 05:56:24;;;;;;;;;0.00;0.00;14.00;99.90;;;;;;4976499;28;11450;-69
2022/05/11 05:59:01;;;;;;;;;0.00;0.00;13.90;99.90;;;;;;4988193;28;11391;-68
2022/05/11 06:01:32;;;;;;;;;0.00;0.00;13.90;99.90;;;;;;4983375;28;11210;-69
2022/05/11 06:04:05;;;;;;;;;0.00;0.00;13.90;99.90;;;;;;4980675;28;11133;-69
2022/05/11 06:06:36;;;;;;;;;0.00;0.00;13.90;99.90;;;;;;4996332;28;11172;-68
2022/05/11 06:09:09;;;;;;;;;0.00;0.00;13.90;99.90;;;;;;4998071;28;11388;-69
2022/05/11 06:11:44;;;;;;;;;0.00;0.00;13.90;99.90;;;;;;4986732;28;11420;-69
2022/05/11 06:14:16;;;;;;;;;0.00;0.00;13.90;99.90;;;;;;4998773;28;10992;-69
2022/05/11 06:16:47;;;;;;;;;0.00;0.00;13.90;99.90;;;;;;4978416;28;11432;-69
2022/05/11 06:19:17;;;;;;;;;0.00;0.00;13.90;99.90;;;;;;4999642;28;11471;-69
2022/05/11 06:21:48;;;;;;;;;0.00;0.00;13.90;99.90;;;;;;4963482;28;11255;-69
2022/05/11 06:24:18;;;;;;;;;0.00;0.00;13.90;99.90;;;;;;4993178;28;11683;-69
2022/05/11 06:26:49;;;;;;;;;0.00;0.00;13.90;99.90;;;;;;4958916;28;12297;-69
2022/05/11 06:29:34;;;;;;;;;0.00;0.00;13.80;99.90;;;;;;4996238;28;11412;-69
2022/05/11 06:32:05;;;;;;;;;0.50;0.00;13.80;99.90;;;;;;4992069;28;11440;-69
2022/05/11 06:34:36;;;;;;;;;0.00;0.00;13.80;99.90;;;;;;4992369;28;11394;-69
2022/05/11 06:37:06;;;;;;;;;0.00;0.00;13.80;99.90;;;;;;4981769;28;11585;-68
2022/05/11 06:39:37;;;;;;;;;0.00;0.00;13.80;99.90;;;;;;4983315;28;11481;-68
2022/05/11 06:42:13;;;;;;;;;0.00;0.00;13.80;99.90;;;;;;4994992;28;11569;-68
2022/05/11 06:44:43;;;;;;;;;1.00;0.00;13.80;99.90;;;;;;4983051;28;11439;-68
2022/05/11 06:47:13;;;;;;;;;0.00;0.00;13.80;99.90;;;;;;4979925;28;12645;-69
2022/05/11 06:49:45;;;;;;;;;0.00;0.00;13.80;99.90;;;;;;5001788;28;11438;-69
2022/05/11 06:52:17;;;;;;;;;1.00;1.00;13.70;99.90;;;;;;4997451;28;11475;-69
2022/05/11 07:00:36;;;;;;;;;0.00;0.00;13.70;99.90;;;;;;4999899;28;11479;-69
2022/05/11 07:03:07;;;;;;;;;0.00;0.00;13.70;99.90;;;;;;4981216;28;11408;-69
2022/05/11 07:05:45;;;;;;;;;2.00;0.00;13.70;99.90;;;;;;5002382;28;11651;-69
2022/05/11 07:08:17;;;;;;;;;0.50;0.25;13.70;99.90;;;;;;5000392;28;11159;-69
2022/05/11 07:12:17;;;;;;;;;0.00;0.00;13.70;99.90;;;;;;4979125;28;11331;-69
2022/05/11 07:13:38;;;;;;;;;0.00;0.00;13.70;99.90;;;;;;4998932;28;11432;-69
2022/05/11 07:16:10;;;;;;;;;0.00;0.00;13.70;99.90;;;;;;4999784;28;11488;-69
2022/05/11 07:18:42;;;;;;;;;0.00;0.00;13.70;99.90;;;;;;4997282;28;11172;-69
2022/05/11 07:21:13;;;;;;;;;0.00;0.00;13.60;99.90;;;;;;4994706;28;11127;-69
2022/05/11 07:23:47;;;;;;;;;0.00;0.00;13.60;99.90;;;;;;4963381;28;11896;-69
2022/05/11 07:26:17;;;;;;;;;0.50;0.50;13.60;99.90;;;;;;4982512;28;11440;-69
2022/05/11 07:28:48;;;;;;;;;0.00;0.00;13.60;99.90;;;;;;4978348;28;11436;-69
2022/05/11 07:31:19;;;;;;;;;0.00;0.00;13.60;99.90;;;;;;4966088;28;11474;-68
2022/05/11 07:33:51;;;;;;;;;0.00;0.00;13.60;99.90;;;;;;4997306;28;11500;-68
2022/05/11 07:36:24;;;;;;;;;0.00;0.00;13.60;99.90;;;;;;4986133;28;11440;-68
2022/05/11 07:38:55;;;;;;;;;1.25;0.00;13.60;99.90;;;;;;4995253;28;11397;-68
2022/05/11 07:41:29;;;;;;;;;0.00;0.00;13.60;99.90;;;;;;4997382;28;11471;-69
2022/05/11 07:44:00;;;;;;;;;0.75;0.75;13.60;99.90;;;;;;4980024;28;11442;-69
2022/05/11 07:46:36;;;;;;;;;0.00;0.00;13.50;99.90;;;;;;5001235;28;11464;-70
2022/05/11 07:49:09;;;;;;;;;0.00;0.00;13.50;99.90;;;;;;4981894;28;11460;-69
2022/05/11 07:51:41;;;;;;;;;0.00;0.00;13.60;99.90;;;;;;4997512;28;11534;-69
2022/05/11 07:54:14;;;;;;;;;1.00;0.00;13.50;99.90;;;;;;4996593;28;11228;-69
2022/05/11 07:59:52;;;;;;;;;0.00;0.00;13.50;99.90;;;;;;4998759;28;12083;-69
2022/05/11 08:02:26;;;;;;;;;0.00;0.00;13.50;99.90;;;;;;4979201;28;11414;-69
2022/05/11 08:05:06;;;;;;;;;1.00;0.00;13.50;99.90;;;;;;4980324;28;11444;-68
2022/05/11 08:07:44;;;;;;;;;0.25;0.25;13.50;99.90;;;;;;4981659;28;12201;-68
2022/05/11 08:10:29;;;;;;;;;0.00;0.00;13.40;99.90;;;;;;4997875;28;11437;-68
2022/05/11 08:13:04;;;;;;;;;0.00;0.00;13.40;99.90;;;;;;4963491;28;11785;-69
2022/05/11 08:15:40;;;;;;;;;0.00;0.00;13.40;99.90;;;;;;4984019;28;11470;-68
2022/05/11 08:18:13;;;;;;;;;0.50;0.50;13.50;99.90;;;;;;4996872;28;11599;-70
2022/05/11 08:20:46;;;;;;;;;2.00;0.00;13.40;99.90;;;;;;4982381;28;11195;-69
2022/05/11 08:23:18;;;;;;;;;0.50;0.50;13.40;99.90;;;;;;4996031;28;11520;-69
2022/05/11 08:25:49;;;;;;;;;0.00;0.00;13.40;99.90;;;;;;4964097;28;11474;-68
2022/05/11 08:28:22;;;;;;;;;0.00;0.00;13.30;99.90;;;;;;4990635;28;11552;-69
2022/05/11 08:33:43;;;;;;;;;0.00;0.00;13.30;99.90;;;;;;4980123;28;11486;-68
2022/05/11 08:36:33;;;;;;;;;0.00;0.00;13.30;99.90;;;;;;4996198;28;11594;-68
2022/05/11 08:39:04;;;;;;;;;1.50;0.50;13.30;99.90;;;;;;4996677;28;11534;-68
2022/05/11 08:41:51;;;;;;;;;0.50;0.50;13.30;99.90;;;;;;4981793;28;11413;-69
2022/05/11 08:44:34;;;;;;;;;0.00;0.00;13.20;99.90;;;;;;4979028;28;11449;-68
2022/05/11 08:47:12;;;;;;;;;0.00;0.00;13.20;99.90;;;;;;4998945;28;11438;-68
2022/05/11 08:49:54;;;;;;;;;1.00;1.00;13.20;99.90;;;;;;4992104;28;11391;-69
2022/05/11 08:52:52;;;;;;;;;0.00;0.00;13.20;99.90;;;;;;4958996;28;11463;-68
2022/05/11 08:55:48;;;;;;;;;0.00;0.00;13.10;99.90;;;;;;4977759;28;11620;-69
2022/05/11 08:58:24;;;;;;;;;0.00;0.00;13.10;99.90;;;;;;4997376;28;11461;-68
2022/05/11 09:00:56;;;;;;;;;1.50;0.00;13.10;99.90;;;;;;4977912;28;11429;-69
2022/05/11 09:03:43;;;;;;;;;0.75;0.75;13.00;99.90;;;;;;4985804;28;11538;-67
2022/05/11 09:06:27;;;;;;;;;0.00;0.00;13.00;99.90;;;;;;4977074;28;11396;-68
2022/05/11 09:09:02;;;;;;;;;0.75;0.75;13.00;99.90;;;;;;4979066;28;11409;-68
2022/05/11 09:11:39;;;;;;;;;0.00;0.00;13.00;99.90;;;;;;4995072;28;11500;-69
2022/05/11 09:14:14;;;;;;;;;1.75;0.00;13.00;99.90;;;;;;4977224;28;11442;-69
2022/05/11 09:16:50;;;;;;;;;1.00;1.00;13.00;99.90;;;;;;4977966;28;11446;-69
2022/05/11 09:19:25;;;;;;;;;1.00;1.00;13.00;99.90;;;;;;4995802;28;11521;-69
2022/05/11 09:22:04;;;;;;;;;1.75;0.00;12.90;99.90;;;;;;4996453;28;12150;-69
2022/05/11 09:24:49;;;;;;;;;0.00;0.00;12.90;99.90;;;;;;4998196;28;11493;-69
2022/05/11 09:27:28;;;;;;;;;0.00;0.00;12.80;99.90;;;;;;4993601;28;11445;-69
2022/05/11 09:30:02;;;;;;;;;0.00;0.00;12.80;99.90;;;;;;4977142;28;11440;-69
2022/05/11 09:32:39;;;;;;;;;0.00;0.00;12.70;99.90;;;;;;4961002;28;11439;-69
2022/05/11 09:35:22;;;;;;;;;0.00;0.00;12.70;99.90;;;;;;4995057;28;11493;-69
2022/05/11 09:38:10;;;;;;;;;0.00;0.00;12.60;99.90;;;;;;4989437;28;11521;-69
2022/05/11 09:41:15;;;;;;;;;1.00;1.00;12.60;99.90;;;;;;4991371;28;11465;-69
2022/05/11 09:43:50;;;;;;;;;2.00;2.00;12.60;99.90;;;;;;4978696;28;11469;-69
2022/05/11 09:46:29;;;;;;;;;1.75;1.75;12.60;99.90;;;;;;4999111;28;11465;-70
2022/05/11 09:49:25;;;;;;;;;0.00;0.00;12.60;99.90;;;;;;4971399;28;11513;-69
2022/05/11 09:51:58;;;;;;;;;0.25;0.25;12.50;99.90;;;;;;4996518;28;11497;-69
2022/05/11 09:54:46;;;;;;;;;0.00;0.00;12.50;99.90;;;;;;4990507;28;11499;-69
2022/05/11 09:57:23;;;;;;;;;1.00;1.00;12.50;99.90;;;;;;4992744;28;11494;-67
2022/05/11 09:59:56;;;;;;;;;1.00;1.00;12.50;99.90;;;;;;4997812;28;11484;-68
2022/05/11 10:02:35;;;;;;;;;0.00;0.00;12.40;99.90;;;;;;4988546;28;11483;-68
2022/05/11 10:05:08;;;;;;;;;1.00;1.00;12.40;99.90;;;;;;4994669;28;12127;-68
2022/05/11 10:08:11;;;;;;;;;1.00;1.00;12.40;99.90;;;;;;4992967;28;11441;-67
2022/05/11 10:10:55;;;;;;;;;0.00;0.00;12.40;99.90;;;;;;4998455;28;11448;-68
2022/05/11 10:13:41;;;;;;;;;1.00;1.00;12.40;99.90;;;;;;4959832;28;11506;-68
2022/05/11 10:22:31;;;;;;;;;1.00;1.00;12.30;99.90;;;;;;5001922;28;12192;-69
2022/05/11 10:25:22;;;;;;;;;0.50;0.50;12.30;99.90;;;;;;4984849;28;11529;-69
2022/05/11 10:28:02;;;;;;;;;0.00;0.00;12.30;99.90;;;;;;4997876;28;11496;-68
2022/05/11 10:31:05;;;;;;;;;0.25;0.25;12.30;99.90;;;;;;5002268;28;11479;-68
2022/05/11 10:33:56;;;;;;;;;0.00;0.00;12.20;99.90;;;;;;4958069;28;12246;-67
2022/05/11 10:37:00;;;;;;;;;1.75;0.75;12.20;99.90;;;;;;4987492;28;11570;-67
2022/05/11 10:39:57;;;;;;;;;0.00;0.00;12.20;99.90;;;;;;4999706;28;11487;-68
2022/05/11 10:43:03;;;;;;;;;0.75;0.75;12.20;99.90;;;;;;4980115;28;11642;-68
2022/05/11 10:46:05;;;;;;;;;1.25;0.00;12.20;99.90;;;;;;4981409;28;11480;-68
2022/05/11 10:48:54;;;;;;;;;0.00;0.00;12.10;99.90;;;;;;4996525;28;11608;-68
2022/05/11 10:51:46;;;;;;;;;0.00;0.00;12.10;99.90;;;;;;4993983;28;11452;-68
2022/05/11 10:54:34;;;;;;;;;0.75;0.75;12.10;99.90;;;;;;5000475;28;11490;-68
2022/05/11 10:57:12;;;;;;;;;1.00;0.00;12.10;99.90;;;;;;4980872;28;11521;-68
2022/05/11 10:59:57;;;;;;;;;0.50;0.50;12.10;99.90;;;;;;5003606;28;11475;-68
2022/05/11 11:02:46;;;;;;;;;0.25;0.25;12.00;99.90;;;;;;4996176;28;11468;-69
2022/05/11 11:05:46;;;;;;;;;0.50;0.25;12.00;99.90;;;;;;4996153;28;11458;-68
2022/05/11 11:08:33;;;;;;;;;0.50;0.50;12.00;99.90;;;;;;5001760;28;11497;-68
2022/05/11 11:11:13;;;;;;;;;1.00;0.00;12.00;99.90;;;;;;4999983;28;11584;-69
2022/05/11 11:14:01;;;;;;;;;0.00;0.00;12.00;99.90;;;;;;4980951;28;11543;-69
2022/05/11 11:16:51;;;;;;;;;0.00;0.00;12.00;99.90;;;;;;5002336;28;11569;-68
2022/05/11 11:19:22;;;;;;;;;0.00;0.00;12.00;99.90;;;;;;5000476;28;12308;-69
2022/05/11 11:21:53;;;;;;;;;0.00;0.00;11.90;99.90;;;;;;4995172;28;11491;-69
2022/05/11 11:24:28;;;;;;;;;0.00;0.00;11.90;99.90;;;;;;4986382;28;11624;-68
2022/05/11 11:27:03;;;;;;;;;0.50;0.50;11.90;99.90;;;;;;4978983;28;11611;-68
2022/05/11 11:29:59;;;;;;;;;0.25;0.25;11.90;99.90;;;;;;4996593;28;11558;-69
2022/05/11 11:32:29;;;;;;;;;0.25;0.25;11.90;99.90;;;;;;4995601;28;11485;-68
2022/05/11 11:35:24;;;;;;;;;1.00;1.00;11.80;99.90;;;;;;4981911;28;11498;-68
2022/05/11 11:38:03;;;;;;;;;0.75;0.75;11.80;99.90;;;;;;4999055;28;11501;-68
2022/05/11 11:40:37;;;;;;;;;1.00;1.00;11.80;99.90;;;;;;4995966;28;11479;-69
2022/05/11 11:43:57;;;;;;;;;0.00;0.00;11.80;99.90;;;;;;4993216;28;11513;-68
2022/05/11 11:46:38;;;;;;;;;0.00;0.00;11.80;99.90;;;;;;4989886;28;11553;-68
2022/05/11 11:49:21;;;;;;;;;0.75;0.75;11.80;99.90;;;;;;4980110;28;11542;-69
2022/05/11 11:51:54;;;;;;;;;0.00;0.00;11.70;99.90;;;;;;4973259;28;11477;-69
2022/05/11 11:54:48;;;;;;;;;1.25;0.25;11.70;99.90;;;;;;4982295;28;11500;-69
2022/05/11 11:57:24;;;;;;;;;0.00;0.00;11.70;99.90;;;;;;4995311;28;11532;-69
2022/05/11 12:00:00;;;;;;;;;1.00;1.00;11.70;99.90;;;;;;4982444;28;12184;-69
2022/05/11 12:02:43;;;;;;;;;0.00;0.00;11.60;99.90;;;;;;5000790;28;11620;-68
2022/05/11 12:05:37;;;;;;;;;1.00;1.00;11.60;99.90;;;;;;4980179;28;11625;-69
2022/05/11 12:17:38;;;;;;;;;1.00;1.00;11.50;99.90;;;;;;5003064;28;11614;-68
2022/05/11 12:20:19;;;;;;;;;2.00;0.00;11.50;99.90;;;;;;4998532;28;11642;-67
2022/05/11 12:22:57;;;;;;;;;0.00;0.00;11.50;99.90;;;;;;4996756;28;11494;-67
2022/05/11 12:25:36;;;;;;;;;1.00;1.00;11.50;99.90;;;;;;4998294;28;11546;-68
2022/05/11 12:28:41;;;;;;;;;0.00;0.00;11.40;99.90;;;;;;4995520;28;12211;-68
2022/05/11 12:31:27;;;;;;;;;1.00;1.00;11.40;99.90;;;;;;4997861;28;12181;-68
2022/05/11 12:33:58;;;;;;;;;2.00;1.00;11.40;99.90;;;;;;4995472;28;11512;-68
2022/05/11 12:36:39;;;;;;;;;0.00;0.00;11.50;99.90;;;;;;4995772;28;11502;-68
2022/05/11 12:39:09;;;;;;;;;0.25;0.25;11.40;99.90;;;;;;5000135;28;11630;-68
2022/05/11 12:41:44;;;;;;;;;1.00;1.00;11.40;99.90;;;;;;4995225;28;11453;-68
2022/05/11 12:44:25;;;;;;;;;0.75;0.75;11.40;99.90;;;;;;4993299;28;11469;-69
2022/05/11 12:47:06;;;;;;;;;1.00;1.00;11.30;99.90;;;;;;4982858;28;11448;-69
2022/05/11 12:49:38;;;;;;;;;1.75;1.75;11.30;99.90;;;;;;4983064;28;11705;-69
2022/05/11 12:52:17;;;;;;;;;0.00;0.00;11.30;99.90;;;;;;4988686;28;11590;-69
2022/05/11 12:55:01;;;;;;;;;2.00;0.25;11.30;99.90;;;;;;4977823;28;11485;-69
2022/05/11 12:57:41;;;;;;;;;0.00;0.00;11.30;99.90;;;;;;4989545;28;11499;-69
2022/05/11 13:00:17;;;;;;;;;0.50;0.50;11.30;99.90;;;;;;4998087;28;12273;-69
2022/05/11 13:02:50;;;;;;;;;0.25;0.25;11.20;99.90;;;;;;4993012;28;11504;-68
2022/05/11 13:05:22;;;;;;;;;2.00;0.00;11.20;99.90;;;;;;4990350;28;11528;-69
2022/05/11 13:08:00;;;;;;;;;0.50;0.50;11.20;99.90;;;;;;4995375;28;12350;-69
2022/05/11 13:10:38;;;;;;;;;1.00;1.00;11.10;99.90;;;;;;4975987;28;11511;-69
2022/05/11 13:13:31;;;;;;;;;0.25;0.25;11.10;99.90;;;;;;4981171;28;11516;-69
2022/05/11 13:16:06;;;;;;;;;1.00;1.00;11.10;99.90;;;;;;4993776;28;11477;-69
2022/05/11 13:18:38;;;;;;;;;2.25;1.00;11.10;99.90;;;;;;4976498;28;11524;-68
2022/05/11 13:21:10;;;;;;;;;0.00;0.00;11.10;99.90;;;;;;4998298;28;11489;-68
2022/05/11 13:23:51;;;;;;;;;1.00;1.00;11.10;99.90;;;;;;4967669;28;12265;-68
2022/05/11 13:26:42;;;;;;;;;0.00;0.00;11.10;99.90;;;;;;4990255;28;11490;-68
2022/05/11 13:29:26;;;;;;;;;0.00;0.00;11.00;99.90;;;;;;4986189;28;11642;-68
2022/05/11 13:32:10;;;;;;;;;1.00;1.00;11.00;99.90;;;;;;4991444;28;11584;-68
2022/05/11 13:34:42;;;;;;;;;0.00;0.00;11.00;99.90;;;;;;4992284;28;11537;-67
2022/05/11 13:37:28;;;;;;;;;0.00;0.00;11.10;99.90;;;;;;4997579;28;11503;-68
2022/05/11 13:39:59;;;;;;;;;2.00;1.00;11.10;99.90;;;;;;4996152;28;11567;-68
2022/05/11 13:42:32;;;;;;;;;1.75;1.75;11.10;99.90;;;;;;4981052;28;11626;-68
2022/05/11 13:45:08;;;;;;;;;2.50;1.00;11.10;99.90;;;;;;4996563;28;11598;-68
2022/05/11 13:50:28;;;;;;;;;0.00;0.00;11.10;99.90;;;;;;4977718;28;11478;-68
2022/05/11 13:53:04;;;;;;;;;3.75;2.25;11.10;99.90;;;;;;4998327;28;12226;-67
2022/05/11 13:55:40;;;;;;;;;4.00;4.00;11.10;99.90;;;;;;4993739;28;11672;-68
2022/05/11 13:58:39;;;;;;;;;10.50;10.50;11.10;99.90;;;;;;4993131;28;11526;-68
2022/05/11 14:01:18;;;;;;;;;13.50;13.50;11.10;99.90;;;;;;4986714;28;11648;-68
2022/05/11 14:03:53;;;;;;;;;24.50;24.50;11.10;99.90;;;;;;4997078;28;11566;-67
2022/05/11 14:06:46;;;;;;;;;33.67;32.33;11.10;99.90;;;;;;4997246;28;11690;-68
2022/05/11 14:09:17;;;;;;;;;39.00;34.67;11.10;99.90;;;;;;4977986;28;11716;-68
2022/05/11 14:11:47;;;;;;;;;32.25;32.25;11.10;99.90;;;;;;4991879;28;8853;-68
2022/05/11 14:14:18;;;;;;;;;34.67;33.67;11.10;99.90;;;;;;4985024;28;11537;-67